Cheatham Observed Data For Previous 48 Hours

Caption
Day and Hour Reservoir Elevation (behind dam)* Tailwater Elevation (below dam)* Average Hourly Discharge*
9/20/2018 1 AM CDT 385.79 358.05 0
9/20/2018 2 AM CDT 385.84 357.85 0
9/20/2018 3 AM CDT 385.94 357.57 0
9/20/2018 4 AM CDT 385.99 357.45 0
9/20/2018 5 AM CDT 386.05 357.28 0
9/20/2018 6 AM CDT 386.11 357.25 0
9/20/2018 7 AM CDT 386.00 357.25 6,400
9/20/2018 8 AM CDT 386.00 357.35 6,400
9/20/2018 9 AM CDT 385.99 357.47 6,400
9/20/2018 10 AM CDT 386.00 357.59 6,400
9/20/2018 11 AM CDT 386.01 357.63 6,400
9/20/2018 12 PM CDT 386.03 357.66 6,400
9/20/2018 1 PM CDT 386.00 357.66 6,500
9/20/2018 2 PM CDT 385.74 357.77 13,000
9/20/2018 3 PM CDT 385.37 358.07 19,800
9/20/2018 4 PM CDT 385.26 358.45 19,800
9/20/2018 5 PM CDT 385.21 358.85 20,100
9/20/2018 6 PM CDT 385.15 358.99 20,100
9/20/2018 7 PM CDT 385.06 359.33 20,400
9/20/2018 8 PM CDT 384.97 359.59 20,400
9/20/2018 9 PM CDT 385.32 359.61 13,600
9/20/2018 10 PM CDT 385.57 359.40 6,700
9/20/2018 11 PM CDT 385.68 359.17 6,700
9/21/2018 12 AM CDT 385.83 359.00 6,600
9/21/2018 1 AM CDT 385.85 358.67 6,600
9/21/2018 2 AM CDT 385.88 358.33 6,600
9/21/2018 3 AM CDT 385.85 358.18 6,600
9/21/2018 4 AM CDT 385.87 357.99 6,600
9/21/2018 5 AM CDT 385.83 357.77 6,500
9/21/2018 6 AM CDT 385.83 357.72 6,500
9/21/2018 7 AM CDT 385.82 357.49 6,500
9/21/2018 8 AM CDT 385.78 357.36 6,500
9/21/2018 9 AM CDT 385.79 357.24 6,500
9/21/2018 10 AM CDT 385.79 357.20 6,500
9/21/2018 11 AM CDT 385.79 357.14 6,500
9/21/2018 12 PM CDT 385.51 357.24 13,000
9/21/2018 1 PM CDT 385.13 357.62 19,800
9/21/2018 2 PM CDT 384.89 358.00 19,800
9/21/2018 3 PM CDT 384.71 358.38 20,100
9/21/2018 4 PM CDT 384.52 358.75 20,100
9/21/2018 5 PM CDT 384.42 359.08 20,400
9/21/2018 6 PM CDT 384.38 359.29 20,400
9/21/2018 7 PM CDT 384.53 359.33 13,600
9/21/2018 8 PM CDT 384.67 359.36 13,600
9/21/2018 9 PM CDT 384.74 359.30 13,600
9/21/2018 10 PM CDT 385.06 358.99 6,700
9/21/2018 11 PM CDT 385.29 358.67 6,700
9/22/2018 12 AM CDT 385.41 358.45 6,600
9/22/2018 1 AM CDT 385.49 358.11 6,600
9/22/2018 2 AM CDT 385.55 357.82 6,600
9/22/2018 3 AM CDT 385.54 357.56 6,500
9/22/2018 4 AM CDT 385.54 357.42 6,500
9/22/2018 5 AM CDT 385.52 357.27 6,500
9/22/2018 6 AM CDT 385.50 357.19 6,500
9/22/2018 7 AM CDT 385.48 356.98 6,500
9/22/2018 8 AM CDT 385.46 356.96 6,500
9/22/2018 9 AM CDT 385.47 356.87 6,500
9/22/2018 10 AM CDT 385.43 356.93 6,500
9/22/2018 11 AM CDT 385.43 356.93 6,500
9/22/2018 12 PM CDT 385.44 356.94 6,500

Elevations are in feet above sea level. Discharges are in cubic feet per second and are reported at the end of the hour.